createdAt,value
2017-09-12T00:01:43.519Z,14.30
2017-09-12T00:04:11.989Z,14.30
2017-09-12T00:06:39.551Z,14.30
2017-09-12T00:09:08.044Z,14.20
2017-09-12T00:11:36.415Z,14.10
2017-09-12T00:14:03.956Z,14.10
2017-09-12T00:16:31.534Z,14.10
2017-09-12T00:18:59.089Z,13.90
2017-09-12T00:21:26.672Z,14.10
2017-09-12T00:23:55.150Z,13.90
2017-09-12T00:26:23.631Z,13.80
2017-09-12T00:28:52.017Z,13.80
2017-09-12T00:31:19.677Z,13.80
2017-09-12T00:33:48.190Z,13.70
2017-09-12T00:36:15.825Z,13.70
2017-09-12T00:38:44.179Z,13.90
2017-09-12T00:41:11.706Z,13.90
2017-09-12T00:43:39.332Z,13.80
2017-09-12T00:46:07.082Z,13.70
2017-09-12T00:48:34.628Z,13.80
2017-09-12T00:51:02.158Z,13.80
2017-09-12T00:53:29.728Z,13.90
2017-09-12T00:55:58.034Z,14.00
2017-09-12T00:58:25.599Z,14.00
2017-09-12T01:00:53.128Z,14.00
2017-09-12T01:03:21.426Z,14.10
2017-09-12T01:05:48.955Z,14.10
2017-09-12T01:08:16.546Z,14.10
2017-09-12T01:10:44.085Z,14.20
2017-09-12T01:13:12.384Z,14.20
2017-09-12T01:15:39.932Z,14.20
2017-09-12T01:18:08.343Z,14.20
2017-09-12T01:20:35.891Z,14.20
2017-09-12T01:23:03.419Z,14.20
2017-09-12T01:25:31.762Z,14.30
2017-09-12T01:27:59.291Z,14.30
2017-09-12T01:30:26.866Z,14.20
2017-09-12T01:32:54.395Z,14.30
2017-09-12T01:35:22.692Z,14.30
2017-09-12T01:37:50.228Z,14.20
2017-09-12T01:40:17.768Z,14.30
2017-09-12T01:42:45.324Z,14.30
2017-09-12T01:45:12.865Z,14.30
2017-09-12T01:47:40.435Z,14.30
2017-09-12T01:50:08.012Z,14.30
2017-09-12T01:55:29.239Z,14.30
2017-09-12T01:57:56.773Z,14.20
2017-09-12T02:00:24.358Z,14.20
2017-09-12T02:02:51.898Z,14.20
2017-09-12T02:05:19.475Z,14.20
2017-09-12T02:07:47.050Z,14.20
2017-09-12T02:10:14.695Z,14.10
2017-09-12T02:12:42.229Z,14.20
2017-09-12T02:15:09.790Z,14.10
2017-09-12T02:17:37.383Z,14.10
2017-09-12T02:20:04.944Z,14.10
2017-09-12T02:22:32.606Z,14.10
2017-09-12T02:25:00.167Z,14.10
2017-09-12T02:27:27.725Z,14.20
2017-09-12T02:29:55.293Z,14.20
2017-09-12T02:32:22.842Z,14.20
2017-09-12T02:34:50.377Z,14.20
2017-09-12T02:37:17.911Z,14.20
2017-09-12T02:39:45.468Z,14.20
2017-09-12T02:42:13.193Z,14.10
2017-09-12T02:44:40.732Z,14.20
2017-09-12T02:47:08.615Z,14.20
2017-09-12T02:49:36.187Z,14.20
2017-09-12T02:52:03.761Z,14.20
2017-09-12T02:54:31.291Z,14.20
2017-09-12T02:56:58.858Z,14.20
2017-09-12T02:59:26.423Z,14.20
2017-09-12T03:01:54.017Z,14.20
2017-09-12T03:04:21.538Z,14.20
2017-09-12T03:06:50.139Z,14.20
2017-09-12T03:09:17.803Z,14.20
2017-09-12T03:11:45.338Z,14.20
2017-09-12T03:14:12.872Z,14.10
2017-09-12T03:16:41.170Z,14.20
2017-09-12T03:19:08.695Z,14.20
2017-09-12T03:21:42.090Z,14.20
2017-09-12T03:24:11.191Z,14.00
2017-09-12T03:26:38.735Z,14.00
2017-09-12T03:29:06.267Z,14.10
2017-09-12T03:31:33.931Z,14.10
2017-09-12T03:34:01.467Z,14.10
2017-09-12T03:36:29.042Z,14.10
2017-09-12T03:38:57.536Z,14.10
2017-09-12T03:41:25.095Z,14.20
2017-09-12T03:43:52.656Z,14.20
2017-09-12T03:46:20.678Z,14.20
2017-09-12T03:48:49.011Z,14.10
2017-09-12T03:51:16.547Z,14.10
2017-09-12T03:53:44.087Z,14.10
2017-09-12T03:56:12.411Z,14.10
2017-09-12T03:58:40.795Z,14.10
2017-09-12T04:01:08.350Z,14.10
2017-09-12T04:03:35.899Z,14.10
2017-09-12T04:06:03.467Z,14.10
2017-09-12T04:08:31.131Z,14.10
2017-09-12T04:10:58.663Z,14.10
2017-09-12T04:13:26.250Z,14.00
2017-09-12T04:15:53.808Z,14.00
2017-09-12T04:18:21.578Z,14.00
2017-09-12T04:20:49.150Z,14.00
2017-09-12T04:23:16.686Z,14.00
2017-09-12T04:25:44.216Z,14.00
2017-09-12T04:28:12.738Z,13.90
2017-09-12T04:30:40.276Z,13.90
2017-09-12T04:33:07.807Z,13.90
2017-09-12T04:35:35.387Z,13.80
2017-09-12T04:38:03.682Z,13.80
2017-09-12T04:40:31.215Z,13.80
2017-09-12T04:42:59.626Z,13.80
2017-09-12T04:45:27.187Z,13.80
2017-09-12T04:47:54.768Z,13.80
2017-09-12T04:50:22.299Z,13.80
2017-09-12T04:52:49.875Z,13.80
2017-09-12T04:55:17.413Z,13.80
2017-09-12T04:57:44.957Z,13.80
2017-09-12T05:00:13.262Z,13.80
2017-09-12T05:02:40.943Z,13.80
2017-09-12T05:05:08.533Z,13.80
2017-09-12T05:07:36.071Z,13.80
2017-09-12T05:10:03.628Z,13.70
2017-09-12T05:12:31.191Z,13.70
2017-09-12T05:14:58.776Z,13.80
2017-09-12T05:17:26.399Z,13.80
2017-09-12T05:19:53.998Z,13.80
2017-09-12T05:22:21.592Z,13.80
2017-09-12T05:24:49.142Z,13.80
2017-09-12T05:27:17.448Z,13.80
2017-09-12T05:29:45.075Z,13.80
2017-09-12T05:32:13.427Z,13.90
2017-09-12T05:34:40.975Z,13.90
2017-09-12T05:37:08.530Z,13.90
2017-09-12T05:39:36.090Z,13.80
2017-09-12T05:42:03.664Z,13.90
2017-09-12T05:44:31.350Z,13.90
2017-09-12T05:46:58.980Z,13.80
2017-09-12T05:49:26.568Z,13.90
2017-09-12T05:51:54.125Z,13.90
2017-09-12T05:54:21.658Z,13.90
2017-09-12T05:56:49.220Z,13.90
2017-09-12T05:59:16.797Z,13.90
2017-09-12T06:01:44.364Z,13.90
2017-09-12T06:04:11.894Z,13.90
2017-09-12T06:06:39.419Z,13.90
2017-09-12T06:09:06.957Z,13.90
2017-09-12T06:11:34.501Z,14.00
2017-09-12T06:14:02.060Z,14.00
2017-09-12T06:16:29.619Z,14.00
2017-09-12T06:18:57.931Z,14.00
2017-09-12T06:21:26.247Z,13.90
2017-09-12T06:23:53.812Z,13.90
2017-09-12T06:26:21.343Z,14.00
2017-09-12T06:28:49.678Z,13.90
2017-09-12T06:31:17.209Z,13.90
2017-09-12T06:33:44.739Z,13.90
2017-09-12T06:36:13.061Z,14.00
2017-09-12T06:38:40.591Z,14.00
2017-09-12T06:41:08.924Z,14.20
2017-09-12T06:43:42.619Z,14.10
2017-09-12T06:46:10.181Z,14.20
2017-09-12T06:48:38.478Z,14.20
2017-09-12T06:51:06.999Z,14.30
2017-09-12T06:53:34.563Z,14.30
2017-09-12T06:56:02.121Z,14.40
2017-09-12T06:58:29.662Z,14.60
2017-09-12T07:00:57.195Z,14.80
2017-09-12T07:03:25.571Z,15.40
2017-09-12T07:05:53.905Z,15.80
2017-09-12T07:08:21.456Z,15.80
2017-09-12T07:10:49.004Z,16.20
2017-09-12T07:13:16.566Z,17.50
2017-09-12T07:15:44.099Z,18.40
2017-09-12T07:18:12.552Z,18.50
2017-09-12T07:20:40.206Z,18.50
2017-09-12T07:23:07.751Z,18.00
2017-09-12T07:25:35.303Z,18.50
2017-09-12T07:28:02.839Z,18.10
2017-09-12T07:30:30.416Z,18.40
2017-09-12T07:32:57.979Z,17.70
2017-09-12T07:35:25.519Z,17.70
2017-09-12T07:37:53.107Z,17.30
2017-09-12T07:40:20.643Z,16.90
2017-09-12T07:42:48.203Z,16.60
2017-09-12T07:45:15.743Z,16.70
2017-09-12T07:47:44.044Z,17.70
2017-09-12T07:50:11.591Z,17.70
2017-09-12T07:52:39.118Z,18.10
2017-09-12T07:55:06.838Z,17.90
2017-09-12T07:57:34.370Z,17.60
2017-09-12T08:00:02.689Z,16.60
2017-09-12T08:02:30.227Z,16.60
2017-09-12T08:04:57.771Z,16.30
2017-09-12T08:07:26.070Z,16.70
2017-09-12T08:09:53.598Z,16.70
2017-09-12T08:12:21.892Z,17.00
2017-09-12T08:14:49.431Z,17.00
2017-09-12T08:17:17.754Z,16.50
2017-09-12T08:19:45.399Z,16.50
2017-09-12T08:22:12.979Z,16.40
2017-09-12T08:24:40.510Z,16.20
2017-09-12T08:27:08.819Z,16.10
2017-09-12T08:29:36.363Z,16.00
2017-09-12T08:32:04.036Z,16.10
2017-09-12T08:34:31.563Z,16.20
2017-09-12T08:36:59.878Z,15.90
2017-09-12T08:39:27.408Z,15.90
2017-09-12T08:41:55.702Z,15.60
2017-09-12T08:44:23.239Z,15.60
2017-09-12T08:46:51.660Z,15.40
2017-09-12T08:49:19.195Z,15.40
2017-09-12T08:51:47.490Z,15.30
2017-09-12T08:54:15.806Z,15.20
2017-09-12T08:56:43.351Z,15.20
2017-09-12T08:59:10.895Z,15.30
2017-09-12T09:01:38.590Z,15.30
2017-09-12T09:04:06.135Z,15.40
2017-09-12T09:06:33.675Z,15.30
2017-09-12T09:09:01.240Z,15.30
2017-09-12T09:11:28.849Z,15.30
2017-09-12T09:13:56.445Z,15.50
2017-09-12T09:16:24.759Z,15.80
2017-09-12T09:18:52.315Z,15.80
2017-09-12T09:21:19.867Z,15.90
2017-09-12T09:23:47.427Z,16.00
2017-09-12T09:26:15.024Z,16.20
2017-09-12T09:28:42.563Z,16.10
2017-09-12T09:31:10.124Z,16.20
2017-09-12T09:33:37.679Z,16.20
2017-09-12T09:36:05.702Z,16.30
2017-09-12T09:38:33.252Z,16.10
2017-09-12T09:41:00.807Z,16.00
2017-09-12T09:43:28.419Z,16.20
2017-09-12T09:45:56.020Z,16.50
2017-09-12T09:48:23.728Z,17.50
2017-09-12T09:50:52.087Z,18.20
2017-09-12T09:53:19.669Z,18.20
2017-09-12T09:55:48.296Z,18.60
2017-09-12T09:58:18.601Z,18.60
2017-09-12T10:00:50.574Z,18.90
2017-09-12T10:03:19.774Z,19.40
2017-09-12T10:05:47.392Z,19.10
2017-09-12T10:08:15.083Z,18.30
2017-09-12T10:10:42.681Z,17.70
2017-09-12T10:13:10.244Z,17.70
2017-09-12T10:15:37.781Z,17.60
2017-09-12T10:18:11.895Z,18.10
2017-09-12T10:20:39.848Z,19.10
2017-09-12T10:23:15.006Z,19.50
2017-09-12T10:25:43.852Z,19.70
2017-09-12T10:30:54.132Z,18.80
2017-09-12T10:33:21.832Z,18.00
2017-09-12T10:35:49.727Z,17.60
2017-09-12T10:38:20.058Z,18.60
2017-09-12T10:40:49.678Z,19.30
2017-09-12T10:43:18.037Z,19.40
2017-09-12T10:45:46.203Z,19.30
2017-09-12T10:48:14.986Z,20.00
2017-09-12T10:50:43.287Z,20.10
2017-09-12T10:53:11.607Z,20.10
2017-09-12T10:55:39.174Z,20.10
2017-09-12T10:58:06.731Z,20.00
2017-09-12T11:00:34.258Z,20.00
2017-09-12T11:03:01.814Z,20.10
2017-09-12T11:05:30.134Z,18.90
2017-09-12T11:07:57.692Z,18.90
2017-09-12T11:10:25.247Z,18.70
2017-09-12T11:12:52.806Z,18.40
2017-09-12T11:15:20.332Z,18.50
2017-09-12T11:17:48.659Z,18.40
2017-09-12T11:20:16.186Z,18.40
2017-09-12T11:22:43.775Z,18.40
2017-09-12T11:25:11.427Z,18.80
2017-09-12T11:27:38.953Z,19.10
2017-09-12T11:30:07.275Z,19.60
2017-09-12T11:32:34.807Z,19.60
2017-09-12T11:35:02.395Z,19.50
2017-09-12T11:37:29.928Z,19.20
2017-09-12T11:39:57.456Z,19.10
2017-09-12T11:42:25.795Z,19.80
2017-09-12T11:44:53.335Z,19.80
2017-09-12T11:47:20.888Z,18.90
2017-09-12T11:49:48.414Z,18.30
2017-09-12T11:52:17.938Z,17.80
2017-09-12T11:54:46.244Z,17.90
2017-09-12T11:57:13.824Z,17.90
2017-09-12T11:59:41.451Z,18.10
2017-09-12T12:02:09.043Z,18.20
2017-09-12T12:04:36.579Z,18.30
2017-09-12T12:07:04.102Z,18.50
2017-09-12T12:09:31.635Z,18.40
2017-09-12T12:11:59.174Z,17.90
2017-09-12T12:14:26.751Z,17.60
2017-09-12T12:16:54.283Z,17.60
2017-09-12T12:19:21.914Z,18.10
2017-09-12T12:21:50.248Z,18.30
2017-09-12T12:24:18.003Z,18.30
2017-09-12T12:26:45.534Z,18.30
2017-09-12T12:29:13.847Z,18.80
2017-09-12T12:31:41.410Z,18.70
2017-09-12T12:34:08.949Z,18.70
2017-09-12T12:36:36.485Z,18.60
2017-09-12T12:39:04.778Z,18.20
2017-09-12T12:41:33.096Z,18.20
2017-09-12T12:44:00.643Z,18.10
2017-09-12T12:46:28.187Z,18.10
2017-09-12T12:48:55.710Z,18.20
2017-09-12T12:51:24.048Z,18.40
2017-09-12T12:53:51.574Z,18.40
2017-09-12T12:56:19.877Z,18.60
2017-09-12T12:58:47.411Z,18.60
2017-09-12T13:01:15.707Z,18.20
2017-09-12T13:03:43.239Z,18.20
2017-09-12T13:06:11.557Z,18.40
2017-09-12T13:08:39.127Z,18.40
2017-09-12T13:11:06.667Z,18.40
2017-09-12T13:13:34.200Z,18.40
2017-09-12T13:16:02.571Z,18.40
2017-09-12T13:18:30.913Z,18.30
2017-09-12T13:20:58.450Z,18.30
2017-09-12T13:23:25.983Z,18.50
2017-09-12T13:25:54.274Z,17.90
2017-09-12T13:28:21.855Z,17.90
2017-09-12T13:30:49.420Z,17.70
2017-09-12T13:33:16.966Z,17.70
2017-09-12T13:35:44.495Z,17.70
2017-09-12T13:38:12.843Z,17.30
2017-09-12T13:40:40.403Z,17.30
2017-09-12T13:43:07.943Z,17.20
2017-09-12T13:45:35.498Z,17.20
2017-09-12T13:48:03.039Z,17.10
2017-09-12T13:50:30.637Z,17.20
2017-09-12T13:52:58.164Z,17.60
2017-09-12T13:55:25.704Z,18.00
2017-09-12T13:57:54.030Z,17.40
2017-09-12T14:00:21.559Z,17.40
2017-09-12T14:02:49.088Z,17.10
2017-09-12T14:05:16.622Z,16.90
2017-09-12T14:07:44.185Z,16.80
2017-09-12T14:10:11.716Z,16.70
2017-09-12T14:12:39.295Z,17.00
2017-09-12T14:15:06.872Z,17.30
2017-09-12T14:17:34.403Z,17.70
2017-09-12T14:20:01.972Z,17.70
2017-09-12T14:22:29.511Z,17.70
2017-09-12T14:24:57.052Z,17.50
2017-09-12T14:27:25.368Z,17.10
2017-09-12T14:29:52.926Z,17.10
2017-09-12T14:32:20.463Z,17.00
2017-09-12T14:34:48.060Z,16.90
2017-09-12T14:37:15.593Z,16.30
2017-09-12T14:39:43.267Z,15.30
2017-09-12T14:42:10.803Z,14.40
2017-09-12T14:44:38.330Z,13.80
2017-09-12T14:47:05.890Z,14.00
2017-09-12T14:49:34.950Z,14.10
2017-09-12T14:52:02.479Z,14.00
2017-09-12T14:54:30.884Z,14.10
2017-09-12T14:56:58.451Z,14.00
2017-09-12T14:59:25.978Z,13.60
2017-09-12T15:01:54.404Z,13.50
2017-09-12T15:04:21.955Z,13.50
2017-09-12T15:06:49.484Z,13.70
2017-09-12T15:09:17.795Z,13.30
2017-09-12T15:11:45.324Z,13.30
2017-09-12T15:14:12.924Z,13.40
2017-09-12T15:16:40.468Z,13.60
2017-09-12T15:19:08.008Z,13.80
2017-09-12T15:21:35.547Z,14.00
2017-09-12T15:24:03.847Z,14.20
2017-09-12T15:26:31.399Z,14.20
2017-09-12T15:28:58.962Z,14.40
2017-09-12T15:31:27.291Z,14.20
2017-09-12T15:33:54.848Z,14.20
2017-09-12T15:36:22.388Z,14.30
2017-09-12T15:38:49.926Z,14.30
2017-09-12T15:41:17.544Z,14.10
2017-09-12T15:43:45.171Z,14.00
2017-09-12T15:46:12.937Z,14.00
2017-09-12T15:48:40.512Z,13.90
2017-09-12T15:51:18.720Z,13.70
2017-09-12T15:53:46.285Z,13.80
2017-09-12T15:56:13.884Z,13.60
2017-09-12T15:58:41.904Z,13.70
2017-09-12T16:01:09.515Z,13.70
2017-09-12T16:03:37.070Z,13.80
2017-09-12T16:06:05.751Z,13.80
2017-09-12T16:08:33.322Z,13.90
2017-09-12T16:11:00.867Z,13.90
2017-09-12T16:13:28.476Z,14.10
2017-09-12T16:15:56.834Z,14.60
2017-09-12T16:18:24.427Z,14.50
2017-09-12T16:20:52.003Z,14.40
2017-09-12T16:23:19.686Z,14.20
2017-09-12T16:25:47.242Z,14.40
2017-09-12T16:28:14.923Z,14.40
2017-09-12T16:30:42.467Z,14.20
2017-09-12T16:33:10.045Z,14.00
2017-09-12T16:35:37.583Z,14.00
2017-09-12T16:38:05.188Z,13.60
2017-09-12T16:40:32.781Z,13.70
2017-09-12T16:43:01.104Z,13.50
2017-09-12T16:45:28.657Z,13.50
2017-09-12T16:47:56.222Z,13.50
2017-09-12T16:50:23.791Z,13.60
2017-09-12T16:52:51.355Z,13.40
2017-09-12T16:55:18.939Z,13.40
2017-09-12T16:57:46.463Z,13.30
2017-09-12T17:00:13.997Z,13.40
2017-09-12T17:02:42.326Z,13.40
2017-09-12T17:05:09.883Z,13.40
2017-09-12T17:07:37.546Z,13.50
2017-09-12T17:10:05.099Z,13.40
2017-09-12T17:12:32.626Z,13.40
2017-09-12T17:15:00.943Z,13.20
2017-09-12T17:17:28.470Z,13.20
2017-09-12T17:19:56.768Z,13.00
2017-09-12T17:22:24.362Z,13.00
2017-09-12T17:24:52.011Z,12.90
2017-09-12T17:27:19.546Z,13.00
2017-09-12T17:29:47.220Z,13.10
2017-09-12T17:32:14.754Z,13.10
2017-09-12T17:34:43.048Z,12.80
2017-09-12T17:37:10.631Z,12.80
2017-09-12T17:39:38.168Z,12.80
2017-09-12T17:42:05.700Z,12.70
2017-09-12T17:44:34.125Z,12.90
2017-09-12T17:47:01.655Z,12.90
2017-09-12T17:49:29.212Z,12.80
2017-09-12T17:51:57.515Z,12.80
2017-09-12T17:54:25.807Z,12.80
2017-09-12T17:56:53.336Z,12.80
2017-09-12T17:59:20.882Z,12.90
2017-09-12T18:01:49.191Z,12.90
2017-09-12T18:04:16.772Z,12.90
2017-09-12T18:06:44.299Z,12.90
2017-09-12T18:09:11.883Z,12.80
2017-09-12T18:11:39.417Z,12.70
2017-09-12T18:14:06.962Z,12.80
2017-09-12T18:16:35.314Z,12.70
2017-09-12T18:19:02.947Z,12.70
2017-09-12T18:21:30.482Z,12.60
2017-09-12T18:23:58.015Z,12.50
2017-09-12T18:26:25.547Z,12.50
2017-09-12T18:28:53.076Z,12.60
2017-09-12T18:31:20.613Z,12.70
2017-09-12T18:33:48.935Z,12.80
2017-09-12T18:36:16.486Z,12.80
2017-09-12T18:38:44.018Z,12.80
2017-09-12T18:41:12.326Z,12.90
2017-09-12T18:43:39.855Z,12.90
2017-09-12T18:46:07.450Z,12.90
2017-09-12T18:48:34.988Z,12.70
2017-09-12T18:51:02.575Z,12.80
2017-09-12T18:53:30.109Z,12.80
2017-09-12T18:55:57.642Z,12.80
2017-09-12T18:58:25.944Z,12.90
2017-09-12T19:00:53.533Z,12.90
2017-09-12T19:03:21.195Z,12.80
2017-09-12T19:05:48.719Z,12.80
2017-09-12T19:08:17.062Z,12.90
2017-09-12T19:10:45.395Z,12.90
2017-09-12T19:13:12.972Z,12.90
2017-09-12T19:15:40.530Z,12.90
2017-09-12T19:18:08.072Z,12.90
2017-09-12T19:20:35.622Z,12.90
2017-09-12T19:23:03.155Z,12.80
2017-09-12T19:25:31.463Z,12.70
2017-09-12T19:27:59.042Z,12.70
2017-09-12T19:30:26.620Z,12.60
2017-09-12T19:32:54.150Z,12.70
2017-09-12T19:35:21.746Z,12.60
2017-09-12T19:37:49.305Z,12.60
2017-09-12T19:40:16.839Z,12.40
2017-09-12T19:42:44.369Z,12.40
2017-09-12T19:45:12.667Z,12.30
2017-09-12T19:47:40.201Z,12.30
2017-09-12T19:50:08.526Z,12.30
2017-09-12T19:52:36.074Z,12.30
2017-09-12T19:55:03.650Z,12.30
2017-09-12T19:57:31.183Z,12.20
2017-09-12T19:59:58.779Z,12.30
2017-09-12T20:02:26.335Z,12.20
2017-09-12T20:04:53.894Z,12.20
2017-09-12T20:07:21.460Z,12.20
2017-09-12T20:09:48.995Z,12.10
2017-09-12T20:12:16.669Z,12.00
2017-09-12T20:14:44.204Z,12.00
2017-09-12T20:17:12.528Z,11.90
2017-09-12T20:19:40.051Z,11.90
2017-09-12T20:22:07.580Z,11.90
2017-09-12T20:24:35.198Z,11.90
2017-09-12T20:27:02.731Z,11.90
2017-09-12T20:29:30.265Z,11.90
2017-09-12T20:31:58.604Z,11.90
2017-09-12T20:34:26.163Z,11.90
2017-09-12T20:36:53.696Z,11.80
2017-09-12T20:39:21.278Z,11.70
2017-09-12T20:41:48.831Z,11.70
2017-09-12T20:44:16.491Z,11.70
2017-09-12T20:46:44.071Z,11.80
2017-09-12T20:49:11.618Z,11.70
2017-09-12T20:51:39.158Z,11.70
2017-09-12T20:54:07.375Z,11.70
2017-09-12T20:56:35.015Z,11.70
2017-09-12T20:59:02.546Z,11.70
2017-09-12T21:01:30.871Z,11.70
2017-09-12T21:03:58.418Z,11.70
2017-09-12T21:06:25.998Z,11.80
2017-09-12T21:08:53.548Z,11.70
2017-09-12T21:11:21.127Z,11.70
2017-09-12T21:13:48.667Z,11.60
2017-09-12T21:16:16.232Z,11.50
2017-09-12T21:18:43.766Z,11.40
2017-09-12T21:21:11.315Z,11.40
2017-09-12T21:23:38.856Z,11.50
2017-09-12T21:26:07.156Z,11.30
2017-09-12T21:28:34.742Z,11.30
2017-09-12T21:31:02.306Z,11.30
2017-09-12T21:33:29.967Z,11.30
2017-09-12T21:35:57.560Z,11.30
2017-09-12T21:38:25.123Z,11.30
2017-09-12T21:40:52.650Z,11.20
2017-09-12T21:43:20.208Z,11.20
2017-09-12T21:45:51.010Z,11.20
2017-09-12T21:48:19.975Z,11.30
2017-09-12T21:50:47.701Z,11.30
2017-09-12T21:53:15.260Z,11.30
2017-09-12T21:55:42.827Z,11.30
2017-09-12T21:58:10.563Z,11.30
2017-09-12T22:00:38.966Z,11.30
2017-09-12T22:03:06.539Z,11.30
2017-09-12T22:05:34.066Z,11.20
2017-09-12T22:08:01.655Z,11.20
2017-09-12T22:10:29.222Z,11.10
2017-09-12T22:12:56.754Z,11.10
2017-09-12T22:15:24.338Z,11.00
2017-09-12T22:17:51.901Z,11.00
2017-09-12T22:20:19.453Z,11.10
2017-09-12T22:22:46.988Z,11.10
2017-09-12T22:25:15.312Z,11.10
2017-09-12T22:27:42.851Z,11.00
2017-09-12T22:30:10.411Z,11.10
2017-09-12T22:32:37.950Z,11.10
2017-09-12T22:35:05.539Z,11.00
2017-09-12T22:37:33.103Z,10.90
2017-09-12T22:40:00.666Z,11.00
2017-09-12T22:42:28.223Z,11.00
2017-09-12T22:44:55.791Z,10.90
2017-09-12T22:47:23.347Z,10.90
2017-09-12T22:49:50.907Z,10.90
2017-09-12T22:52:18.571Z,10.80
2017-09-12T22:54:46.110Z,10.80
2017-09-12T22:57:13.723Z,10.80
2017-09-12T22:59:42.154Z,10.80
2017-09-12T23:02:09.702Z,10.80
2017-09-12T23:04:37.326Z,10.80
2017-09-12T23:07:05.744Z,10.80
2017-09-12T23:09:33.301Z,10.80
2017-09-12T23:12:00.902Z,10.90
2017-09-12T23:14:28.465Z,10.90
2017-09-12T23:16:56.110Z,10.80
2017-09-12T23:19:23.659Z,10.80
2017-09-12T23:21:51.195Z,10.80
2017-09-12T23:24:18.801Z,10.80
2017-09-12T23:26:46.461Z,10.80
2017-09-12T23:29:13.999Z,10.90
2017-09-12T23:31:41.575Z,10.90
2017-09-12T23:34:09.139Z,10.90
2017-09-12T23:36:36.681Z,10.90
2017-09-12T23:39:04.258Z,10.90
2017-09-12T23:41:31.798Z,11.00
2017-09-12T23:43:59.342Z,10.90
2017-09-12T23:46:26.919Z,10.90
2017-09-12T23:48:54.513Z,11.00
2017-09-12T23:51:22.079Z,11.00
2017-09-12T23:53:49.619Z,11.00
2017-09-12T23:56:17.153Z,11.00
2017-09-12T23:58:44.723Z,11.00
